Time;durP1;ratioP1;P1;durP2;ratioP2;P2;SDS_P1;SDS_P2;PMS_P1;PMS_P2;Temp;Humidity;BMP_temperature;BMP_pressure;BME280_temperature;BME280_humidity;BME280_pressure;Samples;Min_cycle;Max_cycle;Signal;HPM_P1;HPM_P2
2021/11/27 00:02:16;;;;;;;10.77;9.77;;;7.00;99.90;;;;;;4863174;29;20057;-85
2021/11/27 00:04:41;;;;;;;10.95;9.95;;;7.00;99.90;;;;;;4863728;29;20112;-86
2021/11/27 00:07:07;;;;;;;10.55;9.70;;;7.10;99.90;;;;;;4863470;29;20507;-84
2021/11/27 00:09:33;;;;;;;9.95;8.98;;;7.10;99.90;;;;;;4863025;29;20869;-86
2021/11/27 00:12:00;;;;;;;11.20;10.10;;;7.10;99.90;;;;;;4862320;29;20030;-86
2021/11/27 00:14:25;;;;;;;11.57;10.57;;;7.10;99.90;;;;;;4861412;29;20479;-84
2021/11/27 00:16:51;;;;;;;10.57;9.68;;;7.10;99.90;;;;;;4862219;29;20081;-86
2021/11/27 00:19:17;;;;;;;10.52;9.57;;;7.00;99.90;;;;;;4873298;29;20032;-83
2021/11/27 00:21:44;;;;;;;10.80;9.80;;;7.00;99.90;;;;;;4880091;29;20150;-83
2021/11/27 00:24:10;;;;;;;10.75;9.70;;;7.00;99.90;;;;;;4881787;29;20081;-85
2021/11/27 00:26:36;;;;;;;11.63;10.57;;;7.00;99.90;;;;;;4895984;29;20029;-84
2021/11/27 00:29:02;;;;;;;11.75;10.73;;;7.00;99.90;;;;;;4881208;29;20383;-84
2021/11/27 00:31:29;;;;;;;11.93;10.82;;;7.00;99.90;;;;;;4895950;29;20033;-84
2021/11/27 00:33:57;;;;;;;12.05;10.88;;;6.90;99.90;;;;;;4895954;29;20574;-84
2021/11/27 00:36:24;;;;;;;11.40;10.40;;;6.90;99.90;;;;;;4880125;29;20029;-84
2021/11/27 00:38:51;;;;;;;11.25;10.25;;;6.90;99.90;;;;;;4880251;29;20021;-84
2021/11/27 00:41:18;;;;;;;12.68;11.50;;;6.90;99.90;;;;;;4879921;29;20039;-83
2021/11/27 00:43:45;;;;;;;11.60;10.50;;;6.90;99.90;;;;;;4881193;29;20116;-85
2021/11/27 00:46:12;;;;;;;11.45;10.35;;;6.90;99.90;;;;;;4896316;29;20037;-84
2021/11/27 00:48:37;;;;;;;11.52;10.38;;;6.90;99.90;;;;;;4895810;29;20036;-85
2021/11/27 00:51:08;;;;;;;11.30;10.00;;;6.90;99.90;;;;;;4895911;29;20029;-85
2021/11/27 00:53:35;;;;;;;11.98;10.77;;;6.80;99.90;;;;;;4893543;29;20041;-83
2021/11/27 00:56:01;;;;;;;11.25;10.07;;;6.70;99.90;;;;;;4883342;29;20037;-84
2021/11/27 00:58:26;;;;;;;10.90;9.80;;;6.70;99.90;;;;;;4882189;29;20079;-82
2021/11/27 01:00:56;;;;;;;11.40;10.20;;;6.70;99.90;;;;;;4899798;29;20032;-84
2021/11/27 01:03:25;;;;;;;11.40;10.30;;;6.70;99.90;;;;;;4899544;29;20029;-84
2021/11/27 01:05:50;;;;;;;11.38;10.27;;;6.70;99.90;;;;;;4898477;29;20465;-86
2021/11/27 01:08:17;;;;;;;11.40;10.30;;;6.70;99.90;;;;;;4883074;29;20040;-85
2021/11/27 01:10:51;;;;;;;11.40;10.07;;;6.60;99.90;;;;;;4882446;29;20129;-86
2021/11/27 01:13:18;;;;;;;10.88;9.43;;;6.60;99.90;;;;;;4898731;29;20500;-87
2021/11/27 01:15:44;;;;;;;11.15;9.23;;;6.60;99.90;;;;;;4898925;29;20036;-88
2021/11/27 01:18:10;;;;;;;10.48;9.35;;;6.50;99.90;;;;;;4882626;29;20025;-86
2021/11/27 01:20:41;;;;;;;10.90;9.20;;;6.40;99.90;;;;;;4899282;29;20090;-85
2021/11/27 01:23:07;;;;;;;10.25;9.20;;;6.40;99.90;;;;;;4899691;29;20020;-86
2021/11/27 01:25:35;;;;;;;11.00;9.68;;;6.40;99.90;;;;;;4898731;29;20037;-85
2021/11/27 01:28:00;;;;;;;11.13;9.20;;;6.40;99.90;;;;;;4882747;29;20024;-85
2021/11/27 01:30:26;;;;;;;11.30;9.88;;;6.30;99.90;;;;;;4883010;29;20032;-83
2021/11/27 01:32:52;;;;;;;10.32;9.10;;;6.10;99.90;;;;;;4882196;29;20017;-84
2021/11/27 01:35:18;;;;;;;11.85;9.35;;;6.10;99.90;;;;;;4899742;29;20051;-84
2021/11/27 01:37:44;;;;;;;12.05;10.38;;;6.10;99.90;;;;;;4899028;29;20481;-84
2021/11/27 01:40:15;;;;;;;12.35;9.65;;;6.10;99.90;;;;;;4898348;29;20078;-83
2021/11/27 01:42:42;;;;;;;12.45;10.02;;;6.00;99.90;;;;;;4899144;29;20032;-82
2021/11/27 01:45:09;;;;;;;11.05;9.15;;;6.00;99.90;;;;;;4898288;29;20048;-82
2021/11/27 01:47:34;;;;;;;10.70;8.27;;;5.90;99.90;;;;;;4881448;29;20386;-82
2021/11/27 01:50:00;;;;;;;8.30;7.45;;;5.90;99.90;;;;;;4897575;29;20029;-81
2021/11/27 01:52:26;;;;;;;8.75;7.70;;;5.90;99.90;;;;;;4881669;29;20041;-82
2021/11/27 01:54:52;;;;;;;9.43;7.82;;;5.90;99.90;;;;;;4898143;29;20032;-81
2021/11/27 01:57:18;;;;;;;9.70;7.40;;;5.90;99.90;;;;;;4898521;29;20056;-81
2021/11/27 01:59:44;;;;;;;8.70;6.90;;;5.90;99.90;;;;;;4897018;29;20025;-81
2021/11/27 02:02:12;;;;;;;10.85;7.20;;;5.90;99.90;;;;;;4881556;29;20470;-80
2021/11/27 02:04:38;;;;;;;9.27;7.78;;;5.90;99.90;;;;;;4881787;29;20120;-81
2021/11/27 02:07:04;;;;;;;7.70;6.90;;;5.90;99.90;;;;;;4896871;29;20017;-82
2021/11/27 02:09:32;;;;;;;9.93;6.95;;;5.90;99.90;;;;;;4881371;29;20027;-82
2021/11/27 02:11:59;;;;;;;10.52;7.40;;;5.90;99.90;;;;;;4898207;29;20044;-83
2021/11/27 02:14:25;;;;;;;6.03;4.97;;;5.90;99.90;;;;;;4897974;29;20080;-81
2021/11/27 02:16:51;;;;;;;4.53;3.60;;;5.90;99.90;;;;;;4898471;29;20029;-82
2021/11/27 02:19:17;;;;;;;3.13;2.58;;;5.90;99.90;;;;;;4896936;29;20025;-82
2021/11/27 02:21:46;;;;;;;2.40;2.10;;;5.80;99.90;;;;;;4896442;29;20028;-83
2021/11/27 02:24:14;;;;;;;3.75;2.20;;;5.80;99.90;;;;;;4898341;29;20092;-82
2021/11/27 02:26:40;;;;;;;2.63;1.98;;;5.70;99.90;;;;;;4881351;29;20115;-81
2021/11/27 02:29:13;;;;;;;3.53;2.05;;;5.70;99.90;;;;;;4897649;29;20378;-84
2021/11/27 02:31:39;;;;;;;2.38;1.92;;;5.70;99.90;;;;;;4895815;29;20054;-84
2021/11/27 02:34:06;;;;;;;1.70;1.50;;;5.70;99.90;;;;;;4898268;29;20031;-84
2021/11/27 02:36:34;;;;;;;2.10;1.90;;;5.60;99.90;;;;;;4897134;29;20099;-84
2021/11/27 02:39:01;;;;;;;3.28;1.98;;;5.60;99.90;;;;;;4898242;29;20039;-84
2021/11/27 02:41:27;;;;;;;3.75;1.70;;;5.50;99.90;;;;;;4881266;29;20031;-84
2021/11/27 02:43:53;;;;;;;2.05;1.60;;;5.40;99.90;;;;;;4897944;29;20032;-84
2021/11/27 02:46:18;;;;;;;4.15;1.83;;;5.30;99.90;;;;;;4896649;29;20054;-84
2021/11/27 02:48:44;;;;;;;2.58;1.73;;;5.20;99.90;;;;;;4896638;29;20521;-85
2021/11/27 02:51:10;;;;;;;1.77;1.38;;;5.20;99.90;;;;;;4897045;29;20036;-85
2021/11/27 02:53:36;;;;;;;1.67;1.30;;;5.10;99.90;;;;;;4896197;29;20049;-83
2021/11/27 02:56:17;;;;;;;2.97;1.40;;;5.10;99.90;;;;;;5088587;27;1233819;-85
2021/11/27 02:58:42;;;;;;;3.03;1.30;;;5.10;99.90;;;;;;5108304;28;20276;-85
2021/11/27 03:01:10;;;;;;;2.38;1.50;;;5.10;99.90;;;;;;5090208;28;20442;-85
2021/11/27 03:03:37;;;;;;;1.80;1.20;;;5.10;99.90;;;;;;5089655;28;20016;-84
2021/11/27 03:06:05;;;;;;;1.70;1.20;;;5.20;99.90;;;;;;5090060;28;20024;-84
2021/11/27 03:08:31;;;;;;;2.75;1.33;;;5.20;99.90;;;;;;5089999;28;20020;-83
2021/11/27 03:10:57;;;;;;;2.22;1.20;;;5.30;99.90;;;;;;5092060;28;20032;-82
2021/11/27 03:13:31;;;;;;;1.35;1.27;;;5.30;99.90;;;;;;5110145;28;20024;-82
2021/11/27 03:15:57;;;;;;;2.80;1.73;;;5.30;99.90;;;;;;5080231;28;20043;-83
2021/11/27 03:18:23;;;;;;;1.85;1.20;;;5.30;99.90;;;;;;5070909;28;20032;-83
2021/11/27 03:20:50;;;;;;;1.40;1.23;;;5.20;99.90;;;;;;5089366;28;20028;-83
2021/11/27 03:23:16;;;;;;;3.22;1.58;;;5.20;99.90;;;;;;5062349;28;20024;-83
2021/11/27 03:25:42;;;;;;;2.40;1.58;;;5.20;99.90;;;;;;5080929;28;20169;-82
2021/11/27 03:28:08;;;;;;;2.92;1.48;;;5.20;99.90;;;;;;5110130;28;20039;-84
2021/11/27 03:30:33;;;;;;;2.20;1.35;;;5.10;99.90;;;;;;5109733;28;20525;-83
2021/11/27 03:32:59;;;;;;;1.85;1.50;;;5.10;99.90;;;;;;5109265;28;20369;-83
2021/11/27 03:35:24;;;;;;;1.42;1.30;;;5.00;99.90;;;;;;5109374;28;20058;-83
2021/11/27 03:37:51;;;;;;;2.33;1.45;;;5.10;99.90;;;;;;5109813;28;20457;-84
2021/11/27 03:40:17;;;;;;;1.52;1.40;;;5.00;99.90;;;;;;5109271;28;20100;-83
2021/11/27 03:42:42;;;;;;;1.40;1.23;;;4.90;99.90;;;;;;5091407;28;20122;-82
2021/11/27 03:45:11;;;;;;;1.50;1.40;;;4.90;99.90;;;;;;5109875;28;20038;-85
2021/11/27 03:47:50;;;;;;;2.13;1.42;;;4.90;99.90;;;;;;5108381;28;20096;-84
2021/11/27 03:50:16;;;;;;;1.52;1.38;;;4.90;99.90;;;;;;5091164;28;20023;-82
2021/11/27 03:52:42;;;;;;;1.63;1.42;;;4.90;99.90;;;;;;5108670;28;20053;-81
2021/11/27 03:55:12;;;;;;;2.17;1.40;;;4.90;99.90;;;;;;5109265;28;20048;-81
2021/11/27 03:57:38;;;;;;;1.77;1.50;;;4.90;99.90;;;;;;5091346;28;20023;-81
2021/11/27 04:00:05;;;;;;;1.60;1.40;;;4.90;99.90;;;;;;5108668;28;20032;-81
2021/11/27 04:02:30;;;;;;;1.73;1.63;;;4.90;99.90;;;;;;5090058;28;20073;-82
2021/11/27 04:04:56;;;;;;;1.38;1.27;;;4.80;99.90;;;;;;5109073;28;20107;-82
2021/11/27 04:07:22;;;;;;;1.50;1.40;;;4.80;99.90;;;;;;5096152;28;20507;-82
2021/11/27 04:09:48;;;;;;;1.40;1.30;;;4.70;99.90;;;;;;5076917;28;20023;-81
2021/11/27 04:12:13;;;;;;;1.40;1.30;;;4.80;99.90;;;;;;5077779;28;20020;-82
2021/11/27 04:14:39;;;;;;;1.48;1.35;;;4.70;99.90;;;;;;5076300;28;20043;-82
2021/11/27 04:17:04;;;;;;;1.20;1.20;;;4.60;99.90;;;;;;5095325;28;20024;-82
2021/11/27 04:19:30;;;;;;;1.10;1.10;;;4.50;99.90;;;;;;5077065;28;20471;-82
2021/11/27 04:21:55;;;;;;;1.48;1.38;;;4.60;99.90;;;;;;5094804;28;20029;-82
2021/11/27 04:24:21;;;;;;;2.28;1.92;;;4.60;99.90;;;;;;5077271;28;20065;-82
2021/11/27 04:26:47;;;;;;;1.98;1.88;;;4.60;99.90;;;;;;5094863;28;20383;-81
2021/11/27 04:29:12;;;;;;;1.25;1.15;;;4.60;99.90;;;;;;5094333;28;20032;-81
2021/11/27 04:31:38;;;;;;;1.30;1.20;;;4.60;99.90;;;;;;5076740;28;20036;-80
2021/11/27 04:34:05;;;;;;;1.40;1.30;;;4.60;99.90;;;;;;5076937;28;20024;-81
2021/11/27 04:36:31;;;;;;;1.35;1.10;;;4.60;99.90;;;;;;5076441;28;20024;-81
2021/11/27 04:38:56;;;;;;;1.25;1.15;;;4.60;99.90;;;;;;5077014;28;20045;-79
2021/11/27 04:41:22;;;;;;;1.20;1.10;;;4.60;99.90;;;;;;5076630;28;20020;-80
2021/11/27 04:43:48;;;;;;;0.98;0.98;;;4.50;99.90;;;;;;5075741;28;20177;-79
2021/11/27 04:46:13;;;;;;;1.17;1.10;;;4.50;99.90;;;;;;5095169;28;20027;-80
2021/11/27 04:48:39;;;;;;;1.00;1.00;;;4.50;99.90;;;;;;5094229;28;20028;-80
2021/11/27 04:51:05;;;;;;;1.65;1.20;;;4.40;99.90;;;;;;5076485;28;20028;-80
2021/11/27 04:53:31;;;;;;;1.38;1.00;;;4.30;99.90;;;;;;5076451;28;20099;-80
2021/11/27 04:55:58;;;;;;;1.88;1.27;;;4.20;99.90;;;;;;5075438;28;20513;-79
2021/11/27 04:58:24;;;;;;;1.92;1.40;;;4.20;99.90;;;;;;5076655;28;20027;-79
2021/11/27 05:00:52;;;;;;;1.55;1.30;;;4.20;99.90;;;;;;5094764;28;20102;-81
2021/11/27 05:03:17;;;;;;;2.20;1.00;;;4.10;99.90;;;;;;5093701;28;20395;-79
2021/11/27 05:05:43;;;;;;;1.65;1.23;;;4.10;99.90;;;;;;5094647;28;20016;-81
2021/11/27 05:08:09;;;;;;;1.38;1.02;;;4.00;99.90;;;;;;5076086;28;20024;-79
2021/11/27 05:10:35;;;;;;;2.47;1.25;;;4.00;99.90;;;;;;5093309;28;20479;-79
2021/11/27 05:13:01;;;;;;;1.75;1.10;;;4.00;99.90;;;;;;5094315;28;20024;-79
2021/11/27 05:15:26;;;;;;;0.82;0.82;;;4.00;99.90;;;;;;5094020;28;20361;-80
2021/11/27 05:17:52;;;;;;;2.17;1.27;;;4.00;99.90;;;;;;5074455;28;20043;-79
2021/11/27 05:20:18;;;;;;;1.58;0.93;;;4.00;99.90;;;;;;5075967;28;20043;-80
2021/11/27 05:22:43;;;;;;;1.15;1.08;;;4.00;99.90;;;;;;5075790;28;20012;-79
2021/11/27 05:25:09;;;;;;;1.15;1.05;;;4.10;99.90;;;;;;5075447;28;20030;-79
2021/11/27 05:27:36;;;;;;;1.52;1.23;;;4.00;99.90;;;;;;5075632;28;20016;-80
2021/11/27 05:30:06;;;;;;;1.13;1.02;;;4.00;99.90;;;;;;5093838;28;20024;-79
2021/11/27 05:35:08;;;;;;;1.23;1.10;;;4.10;99.90;;;;;;5093985;28;20061;-79
2021/11/27 05:37:34;;;;;;;1.55;1.10;;;4.00;99.90;;;;;;5075473;28;20020;-79
2021/11/27 05:40:00;;;;;;;1.55;1.23;;;4.00;99.90;;;;;;5075212;28;20024;-79
2021/11/27 05:42:26;;;;;;;1.52;1.20;;;4.00;99.90;;;;;;5075473;28;20030;-80
2021/11/27 05:44:53;;;;;;;1.48;1.23;;;4.00;99.90;;;;;;5075582;28;20024;-77
2021/11/27 05:47:19;;;;;;;1.23;1.13;;;4.00;99.90;;;;;;5075794;28;20475;-78
2021/11/27 05:49:45;;;;;;;1.65;1.10;;;4.00;99.90;;;;;;5075443;28;20035;-78
2021/11/27 05:52:10;;;;;;;1.20;1.10;;;4.00;99.90;;;;;;5093099;28;20785;-78
2021/11/27 05:54:36;;;;;;;1.38;1.23;;;4.00;99.90;;;;;;5093166;28;20040;-78
2021/11/27 05:57:03;;;;;;;1.98;1.13;;;3.90;99.90;;;;;;5093584;28;20488;-80
2021/11/27 05:59:28;;;;;;;1.85;1.20;;;3.90;99.90;;;;;;5092557;28;20028;-80
2021/11/27 06:01:54;;;;;;;1.45;1.00;;;3.90;99.90;;;;;;5075034;28;20024;-80
2021/11/27 06:04:20;;;;;;;0.95;0.82;;;3.90;99.90;;;;;;5093534;28;20486;-80
2021/11/27 06:06:45;;;;;;;1.23;1.15;;;3.90;99.90;;;;;;5074563;28;20020;-81
2021/11/27 06:09:11;;;;;;;1.05;1.00;;;3.90;99.90;;;;;;5093193;28;20028;-81
2021/11/27 06:11:36;;;;;;;1.20;1.10;;;3.90;99.90;;;;;;5074666;28;20032;-80
2021/11/27 06:14:02;;;;;;;1.00;1.00;;;3.90;99.90;;;;;;5092391;28;20023;-80
2021/11/27 06:16:28;;;;;;;1.10;1.10;;;3.90;99.90;;;;;;5075103;28;20406;-80
2021/11/27 06:18:53;;;;;;;0.98;0.98;;;3.90;99.90;;;;;;5074799;28;20024;-80
2021/11/27 06:21:22;;;;;;;2.22;1.40;;;3.90;99.90;;;;;;5092005;28;20039;-80
2021/11/27 06:23:50;;;;;;;2.42;1.20;;;3.90;99.90;;;;;;5073383;28;20077;-78
2021/11/27 06:26:16;;;;;;;2.20;1.27;;;3.90;99.90;;;;;;5060949;28;20033;-79
2021/11/27 06:28:41;;;;;;;1.23;1.13;;;3.90;99.90;;;;;;5054345;28;20483;-80
2021/11/27 06:31:07;;;;;;;3.05;2.45;;;4.00;99.90;;;;;;5074584;28;20016;-79
2021/11/27 06:33:32;;;;;;;3.15;2.92;;;3.90;99.90;;;;;;5074380;28;20081;-79
2021/11/27 06:35:58;;;;;;;2.20;2.08;;;3.90;99.90;;;;;;5068231;28;20067;-79
2021/11/27 06:38:23;;;;;;;17.45;2.83;;;3.90;99.90;;;;;;5074822;28;20149;-79
2021/11/27 06:40:49;;;;;;;2.00;1.90;;;3.90;99.90;;;;;;5057467;28;20131;-79
2021/11/27 06:43:15;;;;;;;1.60;1.48;;;3.90;99.90;;;;;;5072197;28;20493;-80
2021/11/27 06:45:41;;;;;;;1.30;1.20;;;4.00;99.90;;;;;;5069978;28;20052;-80
2021/11/27 06:48:07;;;;;;;1.30;1.20;;;3.90;99.90;;;;;;5073717;28;20114;-79
2021/11/27 06:50:32;;;;;;;1.60;1.50;;;3.90;99.90;;;;;;5092206;28;20032;-81
2021/11/27 06:52:58;;;;;;;1.10;1.10;;;3.90;99.90;;;;;;5089975;28;20445;-82
2021/11/27 06:55:23;;;;;;;1.60;1.50;;;3.90;99.90;;;;;;5087590;28;20051;-81
2021/11/27 06:57:49;;;;;;;1.73;1.60;;;3.90;99.90;;;;;;5074840;28;20016;-80
2021/11/27 07:00:15;;;;;;;1.30;1.20;;;3.90;99.90;;;;;;5072403;28;20016;-80
2021/11/27 07:02:40;;;;;;;1.50;1.40;;;3.80;99.90;;;;;;5088161;28;20119;-79
2021/11/27 07:05:06;;;;;;;1.30;1.20;;;3.90;99.90;;;;;;5070490;28;20511;-80
2021/11/27 07:07:32;;;;;;;1.48;1.38;;;3.90;99.90;;;;;;5091672;28;20028;-78
2021/11/27 07:09:58;;;;;;;1.17;1.17;;;3.80;99.90;;;;;;5090739;28;20035;-79
2021/11/27 07:12:23;;;;;;;3.45;1.58;;;3.90;99.90;;;;;;5080904;28;20031;-80
2021/11/27 07:14:49;;;;;;;1.98;1.88;;;3.90;99.90;;;;;;5074062;28;20040;-80
2021/11/27 07:17:15;;;;;;;1.60;1.45;;;3.90;99.90;;;;;;5057969;28;20056;-80
2021/11/27 07:19:41;;;;;;;1.67;1.58;;;3.80;99.90;;;;;;5080231;28;20408;-79
2021/11/27 07:22:07;;;;;;;2.22;2.03;;;3.80;99.90;;;;;;5074179;28;20073;-79
2021/11/27 07:24:32;;;;;;;1.80;1.70;;;3.80;99.90;;;;;;5073526;28;20027;-79
2021/11/27 07:26:59;;;;;;;2.15;2.05;;;3.70;99.90;;;;;;5073818;28;20418;-79
2021/11/27 07:29:25;;;;;;;2.20;2.00;;;3.70;99.90;;;;;;5061130;28;20016;-79
2021/11/27 07:31:52;;;;;;;1.90;1.77;;;3.70;99.90;;;;;;5068670;28;20073;-79
2021/11/27 07:34:18;;;;;;;2.30;2.20;;;3.80;99.90;;;;;;5074274;28;20035;-79
2021/11/27 07:36:43;;;;;;;2.00;1.83;;;3.70;99.90;;;;;;5092062;28;20024;-79
2021/11/27 07:39:09;;;;;;;2.10;2.00;;;3.70;99.90;;;;;;5076094;28;20025;-79
2021/11/27 07:41:36;;;;;;;2.33;2.13;;;3.70;99.90;;;;;;5072817;28;20104;-79
2021/11/27 07:44:01;;;;;;;2.45;2.03;;;3.70;99.90;;;;;;5057673;28;20047;-79
2021/11/27 07:46:29;;;;;;;2.25;2.05;;;3.70;99.90;;;;;;5092241;28;20036;-80
2021/11/27 07:48:55;;;;;;;2.40;2.20;;;3.70;99.90;;;;;;5078295;28;20051;-80
2021/11/27 07:51:20;;;;;;;2.60;2.40;;;3.70;99.90;;;;;;5077499;28;20114;-79
2021/11/27 07:53:46;;;;;;;2.70;2.50;;;3.70;99.90;;;;;;5094858;28;20074;-79
2021/11/27 07:56:12;;;;;;;2.80;2.47;;;3.70;99.90;;;;;;5093660;28;20810;-79
2021/11/27 07:58:38;;;;;;;2.60;2.40;;;3.70;99.90;;;;;;5076553;28;20470;-79
2021/11/27 08:01:05;;;;;;;2.70;2.50;;;3.70;99.90;;;;;;5096069;28;20112;-81
2021/11/27 08:03:32;;;;;;;2.80;2.60;;;3.60;99.90;;;;;;5059592;28;20024;-84
2021/11/27 08:05:57;;;;;;;2.70;2.50;;;3.60;99.90;;;;;;5095199;28;20031;-79
2021/11/27 08:08:23;;;;;;;2.88;2.67;;;3.60;99.90;;;;;;5094383;28;20017;-78
2021/11/27 08:10:48;;;;;;;3.58;3.28;;;3.60;99.90;;;;;;5077318;28;20068;-77
2021/11/27 08:13:14;;;;;;;2.75;2.55;;;3.50;99.90;;;;;;5094604;28;20024;-80
2021/11/27 08:15:40;;;;;;;2.75;2.55;;;3.60;99.90;;;;;;5095350;28;20047;-87
2021/11/27 08:18:06;;;;;;;2.83;2.63;;;3.60;99.90;;;;;;5076042;28;20051;-82
2021/11/27 08:20:31;;;;;;;3.10;2.65;;;3.60;99.90;;;;;;5076547;28;20081;-81
2021/11/27 08:22:57;;;;;;;2.70;2.50;;;3.50;99.90;;;;;;5076423;28;20020;-77
2021/11/27 08:25:23;;;;;;;2.90;2.70;;;3.50;99.90;;;;;;5077850;28;20525;-76
2021/11/27 08:27:49;;;;;;;2.88;2.67;;;3.60;99.90;;;;;;5093089;28;20494;-76
2021/11/27 08:30:14;;;;;;;3.50;3.20;;;3.60;99.90;;;;;;5075086;28;20383;-77
2021/11/27 08:32:42;;;;;;;3.13;2.92;;;3.60;99.90;;;;;;5076623;28;20056;-75
2021/11/27 08:35:08;;;;;;;2.97;2.78;;;3.60;99.90;;;;;;5092512;28;20028;-77
2021/11/27 08:37:34;;;;;;;3.65;3.35;;;3.60;99.90;;;;;;5092730;28;20028;-77
2021/11/27 08:40:00;;;;;;;3.60;3.30;;;3.60;99.90;;;;;;5076871;28;20024;-77
2021/11/27 18:21:19;;;;;;;13.23;8.10;;;5.30;99.90;;;;;;5391466;23;20101;-77
2021/11/27 18:23:47;;;;;;;9.75;6.50;;;5.30;99.90;;;;;;4953254;29;20081;-79
2021/11/27 18:26:15;;;;;;;8.68;5.78;;;5.30;99.90;;;;;;4952585;28;20035;-79
2021/11/27 18:28:41;;;;;;;7.25;5.20;;;5.30;99.90;;;;;;4953442;28;20023;-80
2021/11/27 18:31:07;;;;;;;9.45;5.70;;;5.40;99.90;;;;;;4953140;29;20035;-79
2021/11/27 18:33:35;;;;;;;12.77;8.95;;;5.40;99.90;;;;;;4952445;29;20395;-78
2021/11/27 18:36:07;;;;;;;14.88;9.55;;;5.40;99.90;;;;;;4952405;29;20130;-82
2021/11/27 18:38:39;;;;;;;12.73;8.02;;;5.50;99.90;;;;;;4954777;28;20031;-77
2021/11/27 18:41:05;;;;;;;9.48;5.80;;;5.50;99.90;;;;;;4953092;28;20395;-77
2021/11/27 18:43:30;;;;;;;6.40;5.70;;;5.50;99.90;;;;;;4952705;28;20023;-79
2021/11/27 18:45:56;;;;;;;7.22;5.97;;;5.60;99.90;;;;;;4952855;29;20031;-78
2021/11/27 18:48:22;;;;;;;6.55;5.72;;;5.60;99.90;;;;;;4954094;28;20028;-79
2021/11/27 18:50:47;;;;;;;7.95;5.22;;;5.60;99.90;;;;;;4952105;28;20114;-75
2021/11/27 18:53:14;;;;;;;9.18;6.50;;;5.70;99.90;;;;;;4956268;28;20022;-89
2021/11/27 18:55:39;;;;;;;7.15;6.05;;;5.70;99.90;;;;;;4953411;28;20046;-81
2021/11/27 18:58:05;;;;;;;7.28;6.50;;;5.70;99.90;;;;;;4970381;28;20023;-81
2021/11/27 19:00:30;;;;;;;9.65;8.60;;;5.70;99.90;;;;;;4952579;28;20055;-78
2021/11/27 19:02:57;;;;;;;9.48;8.48;;;5.70;99.90;;;;;;4948177;28;20464;-77
2021/11/27 19:05:23;;;;;;;11.18;8.75;;;5.70;99.90;;;;;;4949510;29;20054;-79
2021/11/27 19:07:48;;;;;;;10.32;8.48;;;5.70;99.90;;;;;;4949146;28;20516;-88
2021/11/27 19:10:14;;;;;;;8.80;7.53;;;5.70;99.90;;;;;;4951624;28;20035;-76
2021/11/27 19:12:40;;;;;;;8.23;7.28;;;5.70;99.90;;;;;;4952699;28;20030;-77
2021/11/27 19:15:07;;;;;;;11.85;10.48;;;5.70;99.90;;;;;;4953897;28;20047;-79
2021/11/27 19:17:36;;;;;;;11.50;9.32;;;5.70;99.90;;;;;;4951793;28;20074;-80
2021/11/27 19:20:07;;;;;;;10.40;9.35;;;5.70;99.90;;;;;;4952785;28;20028;-79
2021/11/27 19:22:36;;;;;;;6.22;5.63;;;5.80;99.90;;;;;;4951420;28;20519;-78
2021/11/27 19:25:07;;;;;;;9.80;8.25;;;5.80;99.90;;;;;;4953126;28;20027;-79
2021/11/27 19:27:33;;;;;;;8.90;7.72;;;5.80;99.90;;;;;;4952449;29;20031;-77
2021/11/27 19:29:58;;;;;;;9.05;7.60;;;5.80;99.90;;;;;;4952432;28;20023;-78
2021/11/27 19:32:24;;;;;;;9.00;6.95;;;5.80;99.90;;;;;;4950150;28;20062;-78
2021/11/27 19:34:50;;;;;;;7.82;7.03;;;5.80;99.90;;;;;;4952594;29;20050;-78
2021/11/27 19:37:15;;;;;;;7.78;6.80;;;5.80;99.90;;;;;;4954028;28;20472;-79
2021/11/27 19:39:41;;;;;;;8.70;7.80;;;5.80;99.90;;;;;;4955040;28;20023;-77
2021/11/27 19:42:07;;;;;;;9.35;8.35;;;5.80;99.90;;;;;;4957764;28;20037;-77
2021/11/27 19:44:32;;;;;;;10.77;8.55;;;5.80;99.90;;;;;;4955889;29;20031;-78
2021/11/27 19:46:58;;;;;;;8.35;7.55;;;5.80;99.90;;;;;;4955683;29;20022;-76
2021/11/27 19:49:26;;;;;;;8.90;7.15;;;5.90;99.90;;;;;;4957163;29;20031;-77
2021/11/27 19:51:52;;;;;;;9.80;8.80;;;5.90;99.90;;;;;;4956008;28;20027;-77
2021/11/27 19:54:17;;;;;;;8.73;7.90;;;5.90;99.90;;;;;;4954905;28;20031;-79
2021/11/27 19:56:43;;;;;;;9.88;8.88;;;5.90;99.90;;;;;;4975094;28;20092;-78
2021/11/27 19:59:09;;;;;;;10.75;9.50;;;5.90;99.90;;;;;;4963800;28;20027;-80
2021/11/27 20:01:35;;;;;;;10.43;9.20;;;5.90;99.90;;;;;;4955318;28;20487;-78
2021/11/27 20:04:01;;;;;;;9.73;8.73;;;5.90;99.90;;;;;;4956116;29;20028;-78
2021/11/27 20:06:28;;;;;;;10.10;8.77;;;5.90;99.90;;;;;;4954672;28;20106;-79
2021/11/27 20:08:56;;;;;;;8.63;7.80;;;5.90;99.90;;;;;;4955582;29;20070;-78
2021/11/27 20:11:22;;;;;;;11.27;10.18;;;6.00;99.90;;;;;;4955510;28;20471;-78
2021/11/27 20:13:54;;;;;;;12.13;10.13;;;6.00;99.90;;;;;;4955912;28;20023;-78
2021/11/27 20:16:21;;;;;;;12.10;9.35;;;6.00;99.90;;;;;;4955906;28;20039;-76
2021/11/27 20:18:47;;;;;;;9.55;8.52;;;6.00;99.90;;;;;;4954358;28;20387;-78
2021/11/27 20:21:14;;;;;;;11.50;8.88;;;6.00;99.90;;;;;;4954786;28;20055;-79
2021/11/27 20:23:41;;;;;;;10.73;9.35;;;6.00;99.90;;;;;;4954690;28;20030;-77
2021/11/27 20:26:10;;;;;;;13.27;11.65;;;6.00;99.90;;;;;;4954435;28;20391;-77
2021/11/27 20:28:37;;;;;;;20.63;16.25;;;6.00;99.90;;;;;;4954324;28;20015;-76
2021/11/27 20:31:03;;;;;;;37.10;24.75;;;6.00;99.90;;;;;;4955243;28;20122;-75
2021/11/27 20:33:29;;;;;;;34.63;24.60;;;6.00;99.90;;;;;;4954674;28;20106;-77
2021/11/27 20:35:55;;;;;;;42.17;28.33;;;6.00;99.90;;;;;;4954536;28;20028;-78
2021/11/27 20:38:23;;;;;;;44.47;30.05;;;6.00;99.90;;;;;;4954811;28;20023;-84
2021/11/27 20:40:49;;;;;;;33.60;23.63;;;6.00;99.90;;;;;;4958081;28;20046;-77
2021/11/27 20:43:15;;;;;;;29.58;20.63;;;6.00;99.90;;;;;;4954220;29;20020;-75
2021/11/27 20:45:41;;;;;;;35.85;23.95;;;6.00;99.90;;;;;;4954292;28;20082;-76
2021/11/27 20:48:07;;;;;;;48.50;29.33;;;6.10;99.90;;;;;;4955857;28;20082;-75
2021/11/27 20:50:33;;;;;;;85.38;48.58;;;6.10;99.90;;;;;;4955134;28;20032;-77
2021/11/27 20:52:59;;;;;;;78.38;48.88;;;6.10;99.90;;;;;;4957366;28;20126;-77
2021/11/27 20:55:24;;;;;;;68.55;44.97;;;6.10;99.90;;;;;;4953778;29;20043;-77
2021/11/27 20:57:50;;;;;;;45.58;33.72;;;6.10;99.90;;;;;;4954410;28;20055;-79
2021/11/27 21:00:17;;;;;;;24.98;21.70;;;6.10;99.90;;;;;;4954780;28;20023;-75
2021/11/27 21:02:42;;;;;;;21.33;19.13;;;6.10;99.90;;;;;;4953751;28;20038;-76
2021/11/27 21:05:08;;;;;;;17.27;15.63;;;6.10;99.90;;;;;;4954835;29;20024;-74
2021/11/27 21:07:34;;;;;;;14.13;12.77;;;6.10;99.90;;;;;;4955409;28;20127;-76
2021/11/27 21:10:00;;;;;;;11.82;10.80;;;6.10;99.90;;;;;;4955045;28;20117;-77
2021/11/27 21:12:25;;;;;;;11.30;10.20;;;6.10;99.90;;;;;;4952936;28;20078;-77
2021/11/27 21:14:51;;;;;;;10.05;9.15;;;6.10;99.90;;;;;;4955236;28;20031;-78
2021/11/27 21:17:18;;;;;;;9.93;8.93;;;6.10;99.90;;;;;;4953771;28;20023;-78
2021/11/27 21:19:43;;;;;;;9.07;8.18;;;6.10;99.90;;;;;;4953468;28;20423;-78
2021/11/27 21:22:10;;;;;;;10.00;9.00;;;6.10;99.90;;;;;;4954175;28;20047;-78
2021/11/27 21:24:36;;;;;;;9.63;8.73;;;6.10;99.90;;;;;;4953235;29;20023;-79
2021/11/27 21:27:02;;;;;;;9.90;8.93;;;6.10;99.90;;;;;;4954438;29;20054;-75
2021/11/27 21:29:27;;;;;;;9.98;8.98;;;6.20;99.90;;;;;;4953763;28;20537;-78
2021/11/27 21:31:53;;;;;;;10.15;9.02;;;6.10;99.90;;;;;;4954219;28;20090;-79
2021/11/27 21:34:19;;;;;;;11.55;10.10;;;6.10;99.90;;;;;;4953540;28;20035;-77
2021/11/27 21:36:44;;;;;;;10.55;9.52;;;6.20;99.90;;;;;;4953517;28;20043;-77
2021/11/27 21:39:10;;;;;;;9.38;8.48;;;6.20;99.90;;;;;;4953452;29;20024;-77
2021/11/27 21:41:37;;;;;;;9.35;8.48;;;6.20;99.90;;;;;;4953403;28;20027;-79
2021/11/27 21:44:03;;;;;;;10.98;9.98;;;6.20;99.90;;;;;;4953279;28;20027;-78
2021/11/27 21:46:30;;;;;;;10.43;9.40;;;6.10;99.90;;;;;;4952878;28;20019;-77
2021/11/27 21:48:56;;;;;;;11.80;10.60;;;6.10;99.90;;;;;;4953683;28;20098;-76
2021/11/27 21:51:22;;;;;;;12.43;10.52;;;6.10;99.90;;;;;;4953657;28;20515;-76
2021/11/27 21:53:47;;;;;;;10.82;9.77;;;6.10;99.90;;;;;;4952937;29;20464;-75
2021/11/27 21:56:14;;;;;;;12.88;10.35;;;6.10;99.90;;;;;;4953432;28;20035;-76
2021/11/27 21:58:39;;;;;;;13.35;11.18;;;6.20;99.90;;;;;;4952470;28;20031;-77
2021/11/27 22:01:05;;;;;;;11.95;10.75;;;6.10;99.90;;;;;;4952876;28;20085;-76
2021/11/27 22:03:31;;;;;;;11.57;10.43;;;6.10;99.90;;;;;;4952487;28;20031;-82
2021/11/27 22:05:56;;;;;;;13.82;11.57;;;6.10;99.90;;;;;;4952826;28;20030;-81
2021/11/27 22:08:22;;;;;;;18.65;14.77;;;6.10;99.90;;;;;;4953471;28;20027;-80
2021/11/27 22:10:49;;;;;;;30.00;21.20;;;6.10;99.90;;;;;;4953149;29;20123;-77
2021/11/27 22:13:15;;;;;;;22.83;17.42;;;6.10;99.90;;;;;;4952692;28;20379;-82
2021/11/27 22:15:42;;;;;;;19.67;14.98;;;6.10;99.90;;;;;;4953762;28;20039;-80
2021/11/27 22:18:08;;;;;;;14.55;12.05;;;6.10;99.90;;;;;;4953467;28;20015;-76
2021/11/27 22:20:34;;;;;;;12.85;11.43;;;6.10;99.90;;;;;;4951368;28;20149;-75
2021/11/27 22:23:03;;;;;;;19.23;14.23;;;6.10;99.90;;;;;;4953278;28;20034;-87
2021/11/27 22:25:29;;;;;;;28.35;17.92;;;6.10;99.90;;;;;;4953212;29;20486;-88
2021/11/27 22:27:54;;;;;;;64.35;36.05;;;6.10;99.90;;;;;;4953560;28;20055;-81